<?xml version="1.0" encoding="UTF-8" ?>
<gpx version="1.1" xmlns:xsi="http://www.w3.org/2001/XMLSchema-instance" 
    xmlns="http://www.topografix.com/GPX/1/1"
    xsi:schemaLocation="http://www.topografix.com/GPX/1/1 http://www.topografix.com/GPX/1/1/gpx.xsd" 
    creator="Openrunner - https://www.openrunner.com" >	<trk>
	                   <name>Parcours trail 18,8 kms-17850946</name>
						<trkseg>
					<trkpt lat="48.648340" lon="-0.944790">
						<ele>203</ele>
						<time>2025-09-16T10:21:35Z</time>
					</trkpt>
					<trkpt lat="48.648370" lon="-0.944640">
						<ele>203</ele>
						<time>2025-09-16T10:21:40Z</time>
					</trkpt>
					<trkpt lat="48.648350" lon="-0.944510">
						<ele>204</ele>
						<time>2025-09-16T10:21:45Z</time>
					</trkpt>
					<trkpt lat="48.648280" lon="-0.944240">
						<ele>206</ele>
						<time>2025-09-16T10:21:54Z</time>
					</trkpt>
					<trkpt lat="48.648190" lon="-0.943940">
						<ele>208</ele>
						<time>2025-09-16T10:22:05Z</time>
					</trkpt>
					<trkpt lat="48.648140" lon="-0.943770">
						<ele>210</ele>
						<time>2025-09-16T10:22:11Z</time>
					</trkpt>
					<trkpt lat="48.648170" lon="-0.943660">
						<ele>211</ele>
						<time>2025-09-16T10:22:15Z</time>
					</trkpt>
					<trkpt lat="48.648250" lon="-0.943610">
						<ele>211</ele>
						<time>2025-09-16T10:22:19Z</time>
					</trkpt>
					<trkpt lat="48.648400" lon="-0.943680">
						<ele>210</ele>
						<time>2025-09-16T10:22:27Z</time>
					</trkpt>
					<trkpt lat="48.648690" lon="-0.943800">
						<ele>205</ele>
						<time>2025-09-16T10:22:42Z</time>
					</trkpt>
					<trkpt lat="48.648920" lon="-0.943740">
						<ele>203</ele>
						<time>2025-09-16T10:22:54Z</time>
					</trkpt>
					<trkpt lat="48.649080" lon="-0.943680">
						<ele>201</ele>
						<time>2025-09-16T10:23:02Z</time>
					</trkpt>
					<trkpt lat="48.649260" lon="-0.943620">
						<ele>200</ele>
						<time>2025-09-16T10:23:12Z</time>
					</trkpt>
					<trkpt lat="48.649370" lon="-0.943530">
						<ele>199</ele>
						<time>2025-09-16T10:23:18Z</time>
					</trkpt>
					<trkpt lat="48.649500" lon="-0.943410">
						<ele>199</ele>
						<time>2025-09-16T10:23:25Z</time>
					</trkpt>
					<trkpt lat="48.649740" lon="-0.943160">
						<ele>200</ele>
						<time>2025-09-16T10:23:40Z</time>
					</trkpt>
					<trkpt lat="48.650210" lon="-0.942670">
						<ele>203</ele>
						<time>2025-09-16T10:24:09Z</time>
					</trkpt>
					<trkpt lat="48.650450" lon="-0.942580">
						<ele>202</ele>
						<time>2025-09-16T10:24:21Z</time>
					</trkpt>
					<trkpt lat="48.650500" lon="-0.942600">
						<ele>201</ele>
						<time>2025-09-16T10:24:24Z</time>
					</trkpt>
					<trkpt lat="48.650830" lon="-0.942580">
						<ele>198</ele>
						<time>2025-09-16T10:24:40Z</time>
					</trkpt>
					<trkpt lat="48.651350" lon="-0.942580">
						<ele>196</ele>
						<time>2025-09-16T10:25:06Z</time>
					</trkpt>
					<trkpt lat="48.651630" lon="-0.942650">
						<ele>194</ele>
						<time>2025-09-16T10:25:20Z</time>
					</trkpt>
					<trkpt lat="48.652010" lon="-0.942700">
						<ele>193</ele>
						<time>2025-09-16T10:25:39Z</time>
					</trkpt>
					<trkpt lat="48.652590" lon="-0.942820">
						<ele>191</ele>
						<time>2025-09-16T10:26:09Z</time>
					</trkpt>
					<trkpt lat="48.653140" lon="-0.942870">
						<ele>192</ele>
						<time>2025-09-16T10:26:36Z</time>
					</trkpt>
					<trkpt lat="48.653540" lon="-0.942980">
						<ele>193</ele>
						<time>2025-09-16T10:26:57Z</time>
					</trkpt>
					<trkpt lat="48.653700" lon="-0.943150">
						<ele>194</ele>
						<time>2025-09-16T10:27:06Z</time>
					</trkpt>
					<trkpt lat="48.653770" lon="-0.943450">
						<ele>196</ele>
						<time>2025-09-16T10:27:17Z</time>
					</trkpt>
					<trkpt lat="48.653740" lon="-0.943700">
						<ele>199</ele>
						<time>2025-09-16T10:27:25Z</time>
					</trkpt>
					<trkpt lat="48.653910" lon="-0.943730">
						<ele>203</ele>
						<time>2025-09-16T10:27:34Z</time>
					</trkpt>
					<trkpt lat="48.654010" lon="-0.943590">
						<ele>202</ele>
						<time>2025-09-16T10:27:41Z</time>
					</trkpt>
					<trkpt lat="48.654130" lon="-0.943370">
						<ele>199</ele>
						<time>2025-09-16T10:27:50Z</time>
					</trkpt>
					<trkpt lat="48.654220" lon="-0.943170">
						<ele>200</ele>
						<time>2025-09-16T10:27:58Z</time>
					</trkpt>
					<trkpt lat="48.654380" lon="-0.942990">
						<ele>202</ele>
						<time>2025-09-16T10:28:08Z</time>
					</trkpt>
					<trkpt lat="48.654490" lon="-0.942890">
						<ele>204</ele>
						<time>2025-09-16T10:28:14Z</time>
					</trkpt>
					<trkpt lat="48.654650" lon="-0.942900">
						<ele>207</ele>
						<time>2025-09-16T10:28:22Z</time>
					</trkpt>
					<trkpt lat="48.654960" lon="-0.942970">
						<ele>213</ele>
						<time>2025-09-16T10:28:38Z</time>
					</trkpt>
					<trkpt lat="48.655010" lon="-0.942930">
						<ele>214</ele>
						<time>2025-09-16T10:28:41Z</time>
					</trkpt>
					<trkpt lat="48.655190" lon="-0.942710">
						<ele>215</ele>
						<time>2025-09-16T10:28:53Z</time>
					</trkpt>
					<trkpt lat="48.655530" lon="-0.942810">
						<ele>222</ele>
						<time>2025-09-16T10:29:10Z</time>
					</trkpt>
					<trkpt lat="48.655650" lon="-0.943090">
						<ele>224</ele>
						<time>2025-09-16T10:29:21Z</time>
					</trkpt>
					<trkpt lat="48.655810" lon="-0.943290">
						<ele>226</ele>
						<time>2025-09-16T10:29:31Z</time>
					</trkpt>
					<trkpt lat="48.655870" lon="-0.943540">
						<ele>227</ele>
						<time>2025-09-16T10:29:40Z</time>
					</trkpt>
					<trkpt lat="48.655930" lon="-0.943930">
						<ele>228</ele>
						<time>2025-09-16T10:29:53Z</time>
					</trkpt>
					<trkpt lat="48.656070" lon="-0.944160">
						<ele>229</ele>
						<time>2025-09-16T10:30:04Z</time>
					</trkpt>
					<trkpt lat="48.656370" lon="-0.944370">
						<ele>231</ele>
						<time>2025-09-16T10:30:20Z</time>
					</trkpt>
					<trkpt lat="48.656600" lon="-0.944570">
						<ele>230</ele>
						<time>2025-09-16T10:30:34Z</time>
					</trkpt>
					<trkpt lat="48.657000" lon="-0.944950">
						<ele>226</ele>
						<time>2025-09-16T10:30:57Z</time>
					</trkpt>
					<trkpt lat="48.657290" lon="-0.945420">
						<ele>227</ele>
						<time>2025-09-16T10:31:18Z</time>
					</trkpt>
					<trkpt lat="48.657400" lon="-0.945690">
						<ele>227</ele>
						<time>2025-09-16T10:31:29Z</time>
					</trkpt>
					<trkpt lat="48.657530" lon="-0.946130">
						<ele>228</ele>
						<time>2025-09-16T10:31:45Z</time>
					</trkpt>
					<trkpt lat="48.657570" lon="-0.946340">
						<ele>229</ele>
						<time>2025-09-16T10:31:52Z</time>
					</trkpt>
					<trkpt lat="48.657610" lon="-0.946570">
						<ele>230</ele>
						<time>2025-09-16T10:32:00Z</time>
					</trkpt>
					<trkpt lat="48.657710" lon="-0.946930">
						<ele>231</ele>
						<time>2025-09-16T10:32:13Z</time>
					</trkpt>
					<trkpt lat="48.657850" lon="-0.947130">
						<ele>233</ele>
						<time>2025-09-16T10:32:22Z</time>
					</trkpt>
					<trkpt lat="48.658050" lon="-0.947240">
						<ele>233</ele>
						<time>2025-09-16T10:32:33Z</time>
					</trkpt>
					<trkpt lat="48.658230" lon="-0.947300">
						<ele>234</ele>
						<time>2025-09-16T10:32:42Z</time>
					</trkpt>
					<trkpt lat="48.658240" lon="-0.947390">
						<ele>234</ele>
						<time>2025-09-16T10:32:45Z</time>
					</trkpt>
					<trkpt lat="48.658170" lon="-0.947460">
						<ele>234</ele>
						<time>2025-09-16T10:32:50Z</time>
					</trkpt>
					<trkpt lat="48.658000" lon="-0.947490">
						<ele>234</ele>
						<time>2025-09-16T10:32:58Z</time>
					</trkpt>
					<trkpt lat="48.657780" lon="-0.947510">
						<ele>234</ele>
						<time>2025-09-16T10:33:09Z</time>
					</trkpt>
					<trkpt lat="48.657260" lon="-0.947500">
						<ele>233</ele>
						<time>2025-09-16T10:33:35Z</time>
					</trkpt>
					<trkpt lat="48.657080" lon="-0.947530">
						<ele>233</ele>
						<time>2025-09-16T10:33:44Z</time>
					</trkpt>
					<trkpt lat="48.657060" lon="-0.947440">
						<ele>233</ele>
						<time>2025-09-16T10:33:47Z</time>
					</trkpt>
					<trkpt lat="48.656910" lon="-0.947180">
						<ele>233</ele>
						<time>2025-09-16T10:33:59Z</time>
					</trkpt>
					<trkpt lat="48.656750" lon="-0.947060">
						<ele>233</ele>
						<time>2025-09-16T10:34:08Z</time>
					</trkpt>
					<trkpt lat="48.656520" lon="-0.947010">
						<ele>234</ele>
						<time>2025-09-16T10:34:19Z</time>
					</trkpt>
					<trkpt lat="48.656260" lon="-0.947010">
						<ele>236</ele>
						<time>2025-09-16T10:34:32Z</time>
					</trkpt>
					<trkpt lat="48.656010" lon="-0.946950">
						<ele>238</ele>
						<time>2025-09-16T10:34:45Z</time>
					</trkpt>
					<trkpt lat="48.655810" lon="-0.946880">
						<ele>240</ele>
						<time>2025-09-16T10:34:55Z</time>
					</trkpt>
					<trkpt lat="48.655740" lon="-0.946790">
						<ele>240</ele>
						<time>2025-09-16T10:35:00Z</time>
					</trkpt>
					<trkpt lat="48.655620" lon="-0.946610">
						<ele>241</ele>
						<time>2025-09-16T10:35:08Z</time>
					</trkpt>
					<trkpt lat="48.655500" lon="-0.946350">
						<ele>240</ele>
						<time>2025-09-16T10:35:19Z</time>
					</trkpt>
					<trkpt lat="48.655330" lon="-0.946010">
						<ele>241</ele>
						<time>2025-09-16T10:35:33Z</time>
					</trkpt>
					<trkpt lat="48.655220" lon="-0.945810">
						<ele>242</ele>
						<time>2025-09-16T10:35:42Z</time>
					</trkpt>
					<trkpt lat="48.655180" lon="-0.945710">
						<ele>242</ele>
						<time>2025-09-16T10:35:45Z</time>
					</trkpt>
					<trkpt lat="48.655170" lon="-0.945590">
						<ele>241</ele>
						<time>2025-09-16T10:35:49Z</time>
					</trkpt>
					<trkpt lat="48.655180" lon="-0.945340">
						<ele>240</ele>
						<time>2025-09-16T10:35:58Z</time>
					</trkpt>
					<trkpt lat="48.655140" lon="-0.944920">
						<ele>238</ele>
						<time>2025-09-16T10:36:12Z</time>
					</trkpt>
					<trkpt lat="48.655110" lon="-0.944620">
						<ele>237</ele>
						<time>2025-09-16T10:36:22Z</time>
					</trkpt>
					<trkpt lat="48.655280" lon="-0.944570">
						<ele>234</ele>
						<time>2025-09-16T10:36:30Z</time>
					</trkpt>
					<trkpt lat="48.655370" lon="-0.944510">
						<ele>232</ele>
						<time>2025-09-16T10:36:35Z</time>
					</trkpt>
					<trkpt lat="48.655440" lon="-0.944340">
						<ele>231</ele>
						<time>2025-09-16T10:36:42Z</time>
					</trkpt>
					<trkpt lat="48.655430" lon="-0.944180">
						<ele>230</ele>
						<time>2025-09-16T10:36:47Z</time>
					</trkpt>
					<trkpt lat="48.655400" lon="-0.944020">
						<ele>229</ele>
						<time>2025-09-16T10:36:53Z</time>
					</trkpt>
					<trkpt lat="48.655340" lon="-0.943830">
						<ele>228</ele>
						<time>2025-09-16T10:37:00Z</time>
					</trkpt>
					<trkpt lat="48.655230" lon="-0.943650">
						<ele>225</ele>
						<time>2025-09-16T10:37:08Z</time>
					</trkpt>
					<trkpt lat="48.655130" lon="-0.943500">
						<ele>223</ele>
						<time>2025-09-16T10:37:15Z</time>
					</trkpt>
					<trkpt lat="48.654960" lon="-0.943450">
						<ele>220</ele>
						<time>2025-09-16T10:37:24Z</time>
					</trkpt>
					<trkpt lat="48.654800" lon="-0.943500">
						<ele>218</ele>
						<time>2025-09-16T10:37:32Z</time>
					</trkpt>
					<trkpt lat="48.654650" lon="-0.943570">
						<ele>216</ele>
						<time>2025-09-16T10:37:40Z</time>
					</trkpt>
					<trkpt lat="48.654520" lon="-0.943650">
						<ele>214</ele>
						<time>2025-09-16T10:37:47Z</time>
					</trkpt>
					<trkpt lat="48.654400" lon="-0.943740">
						<ele>214</ele>
						<time>2025-09-16T10:37:53Z</time>
					</trkpt>
					<trkpt lat="48.654300" lon="-0.943990">
						<ele>217</ele>
						<time>2025-09-16T10:38:03Z</time>
					</trkpt>
					<trkpt lat="48.654240" lon="-0.944210">
						<ele>221</ele>
						<time>2025-09-16T10:38:11Z</time>
					</trkpt>
					<trkpt lat="48.654170" lon="-0.944550">
						<ele>225</ele>
						<time>2025-09-16T10:38:23Z</time>
					</trkpt>
					<trkpt lat="48.654170" lon="-0.944810">
						<ele>230</ele>
						<time>2025-09-16T10:38:31Z</time>
					</trkpt>
					<trkpt lat="48.654160" lon="-0.945290">
						<ele>232</ele>
						<time>2025-09-16T10:38:47Z</time>
					</trkpt>
					<trkpt lat="48.654170" lon="-0.945460">
						<ele>232</ele>
						<time>2025-09-16T10:38:53Z</time>
					</trkpt>
					<trkpt lat="48.654080" lon="-0.945680">
						<ele>230</ele>
						<time>2025-09-16T10:39:01Z</time>
					</trkpt>
					<trkpt lat="48.653980" lon="-0.946000">
						<ele>227</ele>
						<time>2025-09-16T10:39:13Z</time>
					</trkpt>
					<trkpt lat="48.653900" lon="-0.946220">
						<ele>225</ele>
						<time>2025-09-16T10:39:21Z</time>
					</trkpt>
					<trkpt lat="48.653770" lon="-0.946550">
						<ele>223</ele>
						<time>2025-09-16T10:39:34Z</time>
					</trkpt>
					<trkpt lat="48.653700" lon="-0.946780">
						<ele>222</ele>
						<time>2025-09-16T10:39:42Z</time>
					</trkpt>
					<trkpt lat="48.653620" lon="-0.947150">
						<ele>220</ele>
						<time>2025-09-16T10:39:55Z</time>
					</trkpt>
					<trkpt lat="48.653380" lon="-0.947090">
						<ele>218</ele>
						<time>2025-09-16T10:40:07Z</time>
					</trkpt>
					<trkpt lat="48.653080" lon="-0.946990">
						<ele>216</ele>
						<time>2025-09-16T10:40:23Z</time>
					</trkpt>
					<trkpt lat="48.652960" lon="-0.946960">
						<ele>216</ele>
						<time>2025-09-16T10:40:29Z</time>
					</trkpt>
					<trkpt lat="48.652700" lon="-0.946900">
						<ele>214</ele>
						<time>2025-09-16T10:40:42Z</time>
					</trkpt>
					<trkpt lat="48.652430" lon="-0.946890">
						<ele>212</ele>
						<time>2025-09-16T10:40:56Z</time>
					</trkpt>
					<trkpt lat="48.652250" lon="-0.946870">
						<ele>210</ele>
						<time>2025-09-16T10:41:05Z</time>
					</trkpt>
					<trkpt lat="48.651860" lon="-0.946830">
						<ele>206</ele>
						<time>2025-09-16T10:41:24Z</time>
					</trkpt>
					<trkpt lat="48.651580" lon="-0.946790">
						<ele>202</ele>
						<time>2025-09-16T10:41:38Z</time>
					</trkpt>
					<trkpt lat="48.651280" lon="-0.946740">
						<ele>198</ele>
						<time>2025-09-16T10:41:53Z</time>
					</trkpt>
					<trkpt lat="48.651230" lon="-0.947030">
						<ele>197</ele>
						<time>2025-09-16T10:42:03Z</time>
					</trkpt>
					<trkpt lat="48.651220" lon="-0.947300">
						<ele>196</ele>
						<time>2025-09-16T10:42:12Z</time>
					</trkpt>
					<trkpt lat="48.651130" lon="-0.947470">
						<ele>195</ele>
						<time>2025-09-16T10:42:19Z</time>
					</trkpt>
					<trkpt lat="48.651000" lon="-0.947800">
						<ele>196</ele>
						<time>2025-09-16T10:42:32Z</time>
					</trkpt>
					<trkpt lat="48.650820" lon="-0.948130">
						<ele>198</ele>
						<time>2025-09-16T10:42:46Z</time>
					</trkpt>
					<trkpt lat="48.650600" lon="-0.948470">
						<ele>201</ele>
						<time>2025-09-16T10:43:02Z</time>
					</trkpt>
					<trkpt lat="48.650640" lon="-0.948620">
						<ele>203</ele>
						<time>2025-09-16T10:43:07Z</time>
					</trkpt>
					<trkpt lat="48.650580" lon="-0.948710">
						<ele>204</ele>
						<time>2025-09-16T10:43:11Z</time>
					</trkpt>
					<trkpt lat="48.650060" lon="-0.948750">
						<ele>204</ele>
						<time>2025-09-16T10:43:38Z</time>
					</trkpt>
					<trkpt lat="48.649520" lon="-0.948870">
						<ele>200</ele>
						<time>2025-09-16T10:44:05Z</time>
					</trkpt>
					<trkpt lat="48.649320" lon="-0.948990">
						<ele>200</ele>
						<time>2025-09-16T10:44:16Z</time>
					</trkpt>
					<trkpt lat="48.649130" lon="-0.949560">
						<ele>207</ele>
						<time>2025-09-16T10:44:37Z</time>
					</trkpt>
					<trkpt lat="48.648840" lon="-0.949920">
						<ele>211</ele>
						<time>2025-09-16T10:44:55Z</time>
					</trkpt>
					<trkpt lat="48.648480" lon="-0.949990">
						<ele>210</ele>
						<time>2025-09-16T10:45:14Z</time>
					</trkpt>
					<trkpt lat="48.648050" lon="-0.950070">
						<ele>209</ele>
						<time>2025-09-16T10:45:35Z</time>
					</trkpt>
					<trkpt lat="48.647670" lon="-0.950080">
						<ele>206</ele>
						<time>2025-09-16T10:45:54Z</time>
					</trkpt>
					<trkpt lat="48.647560" lon="-0.950060">
						<ele>205</ele>
						<time>2025-09-16T10:46:00Z</time>
					</trkpt>
					<trkpt lat="48.646770" lon="-0.950560">
						<ele>206</ele>
						<time>2025-09-16T10:46:43Z</time>
					</trkpt>
					<trkpt lat="48.646300" lon="-0.950970">
						<ele>201</ele>
						<time>2025-09-16T10:47:10Z</time>
					</trkpt>
					<trkpt lat="48.645690" lon="-0.951580">
						<ele>194</ele>
						<time>2025-09-16T10:47:46Z</time>
					</trkpt>
					<trkpt lat="48.645100" lon="-0.952190">
						<ele>189</ele>
						<time>2025-09-16T10:48:22Z</time>
					</trkpt>
					<trkpt lat="48.644760" lon="-0.952620">
						<ele>187</ele>
						<time>2025-09-16T10:48:44Z</time>
					</trkpt>
					<trkpt lat="48.644540" lon="-0.952920">
						<ele>187</ele>
						<time>2025-09-16T10:48:59Z</time>
					</trkpt>
					<trkpt lat="48.644260" lon="-0.953240">
						<ele>186</ele>
						<time>2025-09-16T10:49:17Z</time>
					</trkpt>
					<trkpt lat="48.643910" lon="-0.953650">
						<ele>185</ele>
						<time>2025-09-16T10:49:39Z</time>
					</trkpt>
					<trkpt lat="48.643830" lon="-0.953840">
						<ele>187</ele>
						<time>2025-09-16T10:49:46Z</time>
					</trkpt>
					<trkpt lat="48.643550" lon="-0.954100">
						<ele>186</ele>
						<time>2025-09-16T10:50:03Z</time>
					</trkpt>
					<trkpt lat="48.643190" lon="-0.954410">
						<ele>183</ele>
						<time>2025-09-16T10:50:24Z</time>
					</trkpt>
					<trkpt lat="48.642690" lon="-0.954860">
						<ele>178</ele>
						<time>2025-09-16T10:50:53Z</time>
					</trkpt>
					<trkpt lat="48.642600" lon="-0.955080">
						<ele>178</ele>
						<time>2025-09-16T10:51:01Z</time>
					</trkpt>
					<trkpt lat="48.642450" lon="-0.955430">
						<ele>179</ele>
						<time>2025-09-16T10:51:15Z</time>
					</trkpt>
					<trkpt lat="48.642200" lon="-0.955840">
						<ele>178</ele>
						<time>2025-09-16T10:51:33Z</time>
					</trkpt>
					<trkpt lat="48.642440" lon="-0.955990">
						<ele>182</ele>
						<time>2025-09-16T10:51:46Z</time>
					</trkpt>
					<trkpt lat="48.642660" lon="-0.956070">
						<ele>185</ele>
						<time>2025-09-16T10:51:58Z</time>
					</trkpt>
					<trkpt lat="48.642910" lon="-0.956050">
						<ele>189</ele>
						<time>2025-09-16T10:52:10Z</time>
					</trkpt>
					<trkpt lat="48.643340" lon="-0.955940">
						<ele>195</ele>
						<time>2025-09-16T10:52:32Z</time>
					</trkpt>
					<trkpt lat="48.643810" lon="-0.956340">
						<ele>202</ele>
						<time>2025-09-16T10:52:59Z</time>
					</trkpt>
					<trkpt lat="48.644060" lon="-0.956520">
						<ele>205</ele>
						<time>2025-09-16T10:53:13Z</time>
					</trkpt>
					<trkpt lat="48.644260" lon="-0.956560">
						<ele>207</ele>
						<time>2025-09-16T10:53:23Z</time>
					</trkpt>
					<trkpt lat="48.644890" lon="-0.956570">
						<ele>212</ele>
						<time>2025-09-16T10:53:55Z</time>
					</trkpt>
					<trkpt lat="48.645410" lon="-0.956660">
						<ele>215</ele>
						<time>2025-09-16T10:54:21Z</time>
					</trkpt>
					<trkpt lat="48.645570" lon="-0.956640">
						<ele>216</ele>
						<time>2025-09-16T10:54:29Z</time>
					</trkpt>
					<trkpt lat="48.645800" lon="-0.956500">
						<ele>218</ele>
						<time>2025-09-16T10:54:41Z</time>
					</trkpt>
					<trkpt lat="48.646050" lon="-0.956290">
						<ele>220</ele>
						<time>2025-09-16T10:54:56Z</time>
					</trkpt>
					<trkpt lat="48.646780" lon="-0.955360">
						<ele>223</ele>
						<time>2025-09-16T10:55:43Z</time>
					</trkpt>
					<trkpt lat="48.647360" lon="-0.954840">
						<ele>225</ele>
						<time>2025-09-16T10:56:17Z</time>
					</trkpt>
					<trkpt lat="48.647850" lon="-0.954280">
						<ele>226</ele>
						<time>2025-09-16T10:56:48Z</time>
					</trkpt>
					<trkpt lat="48.648850" lon="-0.953330">
						<ele>227</ele>
						<time>2025-09-16T10:57:47Z</time>
					</trkpt>
					<trkpt lat="48.649670" lon="-0.952580">
						<ele>228</ele>
						<time>2025-09-16T10:58:35Z</time>
					</trkpt>
					<trkpt lat="48.650000" lon="-0.952360">
						<ele>226</ele>
						<time>2025-09-16T10:58:53Z</time>
					</trkpt>
					<trkpt lat="48.650100" lon="-0.952350">
						<ele>226</ele>
						<time>2025-09-16T10:58:58Z</time>
					</trkpt>
					<trkpt lat="48.649990" lon="-0.953790">
						<ele>227</ele>
						<time>2025-09-16T10:59:46Z</time>
					</trkpt>
					<trkpt lat="48.650060" lon="-0.954560">
						<ele>228</ele>
						<time>2025-09-16T11:00:11Z</time>
					</trkpt>
					<trkpt lat="48.650040" lon="-0.954810">
						<ele>229</ele>
						<time>2025-09-16T11:00:20Z</time>
					</trkpt>
					<trkpt lat="48.650550" lon="-0.955120">
						<ele>229</ele>
						<time>2025-09-16T11:00:47Z</time>
					</trkpt>
					<trkpt lat="48.650990" lon="-0.955380">
						<ele>230</ele>
						<time>2025-09-16T11:01:11Z</time>
					</trkpt>
					<trkpt lat="48.651620" lon="-0.955700">
						<ele>231</ele>
						<time>2025-09-16T11:01:44Z</time>
					</trkpt>
					<trkpt lat="48.651410" lon="-0.956570">
						<ele>238</ele>
						<time>2025-09-16T11:02:15Z</time>
					</trkpt>
					<trkpt lat="48.651210" lon="-0.957260">
						<ele>244</ele>
						<time>2025-09-16T11:02:40Z</time>
					</trkpt>
					<trkpt lat="48.650870" lon="-0.958370">
						<ele>249</ele>
						<time>2025-09-16T11:03:20Z</time>
					</trkpt>
					<trkpt lat="48.650640" lon="-0.959100">
						<ele>252</ele>
						<time>2025-09-16T11:03:47Z</time>
					</trkpt>
					<trkpt lat="48.651270" lon="-0.959210">
						<ele>255</ele>
						<time>2025-09-16T11:04:19Z</time>
					</trkpt>
					<trkpt lat="48.651350" lon="-0.959440">
						<ele>258</ele>
						<time>2025-09-16T11:04:27Z</time>
					</trkpt>
					<trkpt lat="48.652250" lon="-0.960300">
						<ele>266</ele>
						<time>2025-09-16T11:05:20Z</time>
					</trkpt>
					<trkpt lat="48.652630" lon="-0.961150">
						<ele>271</ele>
						<time>2025-09-16T11:05:54Z</time>
					</trkpt>
					<trkpt lat="48.653260" lon="-0.962590">
						<ele>274</ele>
						<time>2025-09-16T11:06:52Z</time>
					</trkpt>
					<trkpt lat="48.653630" lon="-0.963500">
						<ele>273</ele>
						<time>2025-09-16T11:07:27Z</time>
					</trkpt>
					<trkpt lat="48.653740" lon="-0.963540">
						<ele>273</ele>
						<time>2025-09-16T11:07:32Z</time>
					</trkpt>
					<trkpt lat="48.654860" lon="-0.963930">
						<ele>273</ele>
						<time>2025-09-16T11:08:30Z</time>
					</trkpt>
					<trkpt lat="48.654940" lon="-0.966320">
						<ele>265</ele>
						<time>2025-09-16T11:09:49Z</time>
					</trkpt>
					<trkpt lat="48.655670" lon="-0.966750">
						<ele>267</ele>
						<time>2025-09-16T11:10:28Z</time>
					</trkpt>
					<trkpt lat="48.657340" lon="-0.967660">
						<ele>268</ele>
						<time>2025-09-16T11:11:57Z</time>
					</trkpt>
					<trkpt lat="48.658450" lon="-0.968200">
						<ele>268</ele>
						<time>2025-09-16T11:12:55Z</time>
					</trkpt>
					<trkpt lat="48.658950" lon="-0.968550">
						<ele>266</ele>
						<time>2025-09-16T11:13:23Z</time>
					</trkpt>
					<trkpt lat="48.659420" lon="-0.968960">
						<ele>265</ele>
						<time>2025-09-16T11:13:50Z</time>
					</trkpt>
					<trkpt lat="48.660130" lon="-0.969590">
						<ele>261</ele>
						<time>2025-09-16T11:14:31Z</time>
					</trkpt>
					<trkpt lat="48.660730" lon="-0.970420">
						<ele>258</ele>
						<time>2025-09-16T11:15:12Z</time>
					</trkpt>
					<trkpt lat="48.660950" lon="-0.970790">
						<ele>258</ele>
						<time>2025-09-16T11:15:29Z</time>
					</trkpt>
					<trkpt lat="48.661180" lon="-0.971080">
						<ele>259</ele>
						<time>2025-09-16T11:15:43Z</time>
					</trkpt>
					<trkpt lat="48.661730" lon="-0.971370">
						<ele>263</ele>
						<time>2025-09-16T11:16:13Z</time>
					</trkpt>
					<trkpt lat="48.662320" lon="-0.971930">
						<ele>268</ele>
						<time>2025-09-16T11:16:47Z</time>
					</trkpt>
					<trkpt lat="48.662740" lon="-0.972370">
						<ele>271</ele>
						<time>2025-09-16T11:17:13Z</time>
					</trkpt>
					<trkpt lat="48.663280" lon="-0.973080">
						<ele>274</ele>
						<time>2025-09-16T11:17:49Z</time>
					</trkpt>
					<trkpt lat="48.663620" lon="-0.973620">
						<ele>275</ele>
						<time>2025-09-16T11:18:13Z</time>
					</trkpt>
					<trkpt lat="48.663810" lon="-0.973830">
						<ele>275</ele>
						<time>2025-09-16T11:18:25Z</time>
					</trkpt>
					<trkpt lat="48.664040" lon="-0.973900">
						<ele>276</ele>
						<time>2025-09-16T11:18:37Z</time>
					</trkpt>
					<trkpt lat="48.664260" lon="-0.973870">
						<ele>276</ele>
						<time>2025-09-16T11:18:48Z</time>
					</trkpt>
					<trkpt lat="48.664980" lon="-0.973750">
						<ele>279</ele>
						<time>2025-09-16T11:19:24Z</time>
					</trkpt>
					<trkpt lat="48.666250" lon="-0.973580">
						<ele>277</ele>
						<time>2025-09-16T11:20:28Z</time>
					</trkpt>
					<trkpt lat="48.667060" lon="-0.973450">
						<ele>275</ele>
						<time>2025-09-16T11:21:09Z</time>
					</trkpt>
					<trkpt lat="48.667470" lon="-0.973330">
						<ele>275</ele>
						<time>2025-09-16T11:21:30Z</time>
					</trkpt>
					<trkpt lat="48.668550" lon="-0.972930">
						<ele>271</ele>
						<time>2025-09-16T11:22:25Z</time>
					</trkpt>
					<trkpt lat="48.668550" lon="-0.972160">
						<ele>271</ele>
						<time>2025-09-16T11:22:51Z</time>
					</trkpt>
					<trkpt lat="48.668640" lon="-0.971660">
						<ele>272</ele>
						<time>2025-09-16T11:23:08Z</time>
					</trkpt>
					<trkpt lat="48.668810" lon="-0.971120">
						<ele>272</ele>
						<time>2025-09-16T11:23:28Z</time>
					</trkpt>
					<trkpt lat="48.668410" lon="-0.970660">
						<ele>272</ele>
						<time>2025-09-16T11:23:53Z</time>
					</trkpt>
					<trkpt lat="48.667990" lon="-0.970260">
						<ele>271</ele>
						<time>2025-09-16T11:24:18Z</time>
					</trkpt>
					<trkpt lat="48.667540" lon="-0.969810">
						<ele>269</ele>
						<time>2025-09-16T11:24:45Z</time>
					</trkpt>
					<trkpt lat="48.667180" lon="-0.969550">
						<ele>269</ele>
						<time>2025-09-16T11:25:05Z</time>
					</trkpt>
					<trkpt lat="48.666840" lon="-0.969390">
						<ele>270</ele>
						<time>2025-09-16T11:25:22Z</time>
					</trkpt>
					<trkpt lat="48.666680" lon="-0.969270">
						<ele>270</ele>
						<time>2025-09-16T11:25:31Z</time>
					</trkpt>
					<trkpt lat="48.666470" lon="-0.969020">
						<ele>270</ele>
						<time>2025-09-16T11:25:45Z</time>
					</trkpt>
					<trkpt lat="48.666310" lon="-0.968750">
						<ele>270</ele>
						<time>2025-09-16T11:25:57Z</time>
					</trkpt>
					<trkpt lat="48.666110" lon="-0.968530">
						<ele>270</ele>
						<time>2025-09-16T11:26:09Z</time>
					</trkpt>
					<trkpt lat="48.665810" lon="-0.968100">
						<ele>270</ele>
						<time>2025-09-16T11:26:30Z</time>
					</trkpt>
					<trkpt lat="48.665440" lon="-0.967660">
						<ele>269</ele>
						<time>2025-09-16T11:26:53Z</time>
					</trkpt>
					<trkpt lat="48.665170" lon="-0.967400">
						<ele>268</ele>
						<time>2025-09-16T11:27:09Z</time>
					</trkpt>
					<trkpt lat="48.664950" lon="-0.967400">
						<ele>268</ele>
						<time>2025-09-16T11:27:20Z</time>
					</trkpt>
					<trkpt lat="48.664690" lon="-0.967380">
						<ele>268</ele>
						<time>2025-09-16T11:27:33Z</time>
					</trkpt>
					<trkpt lat="48.664560" lon="-0.967200">
						<ele>267</ele>
						<time>2025-09-16T11:27:42Z</time>
					</trkpt>
					<trkpt lat="48.664280" lon="-0.966830">
						<ele>268</ele>
						<time>2025-09-16T11:28:01Z</time>
					</trkpt>
					<trkpt lat="48.663850" lon="-0.966030">
						<ele>266</ele>
						<time>2025-09-16T11:28:35Z</time>
					</trkpt>
					<trkpt lat="48.663270" lon="-0.965210">
						<ele>265</ele>
						<time>2025-09-16T11:29:15Z</time>
					</trkpt>
					<trkpt lat="48.662770" lon="-0.964460">
						<ele>265</ele>
						<time>2025-09-16T11:29:50Z</time>
					</trkpt>
					<trkpt lat="48.662140" lon="-0.963390">
						<ele>265</ele>
						<time>2025-09-16T11:30:37Z</time>
					</trkpt>
					<trkpt lat="48.661810" lon="-0.962840">
						<ele>266</ele>
						<time>2025-09-16T11:31:02Z</time>
					</trkpt>
					<trkpt lat="48.661540" lon="-0.962350">
						<ele>268</ele>
						<time>2025-09-16T11:31:23Z</time>
					</trkpt>
					<trkpt lat="48.661390" lon="-0.961980">
						<ele>268</ele>
						<time>2025-09-16T11:31:37Z</time>
					</trkpt>
					<trkpt lat="48.661200" lon="-0.961750">
						<ele>271</ele>
						<time>2025-09-16T11:31:49Z</time>
					</trkpt>
					<trkpt lat="48.660890" lon="-0.961470">
						<ele>273</ele>
						<time>2025-09-16T11:32:07Z</time>
					</trkpt>
					<trkpt lat="48.660480" lon="-0.961080">
						<ele>273</ele>
						<time>2025-09-16T11:32:32Z</time>
					</trkpt>
					<trkpt lat="48.660070" lon="-0.960800">
						<ele>275</ele>
						<time>2025-09-16T11:32:54Z</time>
					</trkpt>
					<trkpt lat="48.659600" lon="-0.960530">
						<ele>272</ele>
						<time>2025-09-16T11:33:19Z</time>
					</trkpt>
					<trkpt lat="48.659110" lon="-0.959820">
						<ele>266</ele>
						<time>2025-09-16T11:33:53Z</time>
					</trkpt>
					<trkpt lat="48.658650" lon="-0.959070">
						<ele>253</ele>
						<time>2025-09-16T11:34:27Z</time>
					</trkpt>
					<trkpt lat="48.658460" lon="-0.958620">
						<ele>246</ele>
						<time>2025-09-16T11:34:45Z</time>
					</trkpt>
					<trkpt lat="48.658390" lon="-0.958340">
						<ele>241</ele>
						<time>2025-09-16T11:34:55Z</time>
					</trkpt>
					<trkpt lat="48.658290" lon="-0.958040">
						<ele>237</ele>
						<time>2025-09-16T11:35:06Z</time>
					</trkpt>
					<trkpt lat="48.657860" lon="-0.957870">
						<ele>233</ele>
						<time>2025-09-16T11:35:28Z</time>
					</trkpt>
					<trkpt lat="48.657280" lon="-0.957630">
						<ele>228</ele>
						<time>2025-09-16T11:35:58Z</time>
					</trkpt>
					<trkpt lat="48.657380" lon="-0.956930">
						<ele>223</ele>
						<time>2025-09-16T11:36:22Z</time>
					</trkpt>
					<trkpt lat="48.657400" lon="-0.956640">
						<ele>220</ele>
						<time>2025-09-16T11:36:31Z</time>
					</trkpt>
					<trkpt lat="48.657370" lon="-0.956370">
						<ele>219</ele>
						<time>2025-09-16T11:36:40Z</time>
					</trkpt>
					<trkpt lat="48.657260" lon="-0.956070">
						<ele>217</ele>
						<time>2025-09-16T11:36:52Z</time>
					</trkpt>
					<trkpt lat="48.657190" lon="-0.955720">
						<ele>216</ele>
						<time>2025-09-16T11:37:04Z</time>
					</trkpt>
					<trkpt lat="48.657180" lon="-0.955450">
						<ele>217</ele>
						<time>2025-09-16T11:37:13Z</time>
					</trkpt>
					<trkpt lat="48.657320" lon="-0.955050">
						<ele>219</ele>
						<time>2025-09-16T11:37:28Z</time>
					</trkpt>
					<trkpt lat="48.657320" lon="-0.954870">
						<ele>220</ele>
						<time>2025-09-16T11:37:34Z</time>
					</trkpt>
					<trkpt lat="48.657190" lon="-0.954720">
						<ele>219</ele>
						<time>2025-09-16T11:37:42Z</time>
					</trkpt>
					<trkpt lat="48.657000" lon="-0.954610">
						<ele>218</ele>
						<time>2025-09-16T11:37:52Z</time>
					</trkpt>
					<trkpt lat="48.656690" lon="-0.954350">
						<ele>215</ele>
						<time>2025-09-16T11:38:10Z</time>
					</trkpt>
					<trkpt lat="48.656450" lon="-0.953900">
						<ele>213</ele>
						<time>2025-09-16T11:38:29Z</time>
					</trkpt>
					<trkpt lat="48.656330" lon="-0.953640">
						<ele>212</ele>
						<time>2025-09-16T11:38:39Z</time>
					</trkpt>
					<trkpt lat="48.656290" lon="-0.953470">
						<ele>211</ele>
						<time>2025-09-16T11:38:45Z</time>
					</trkpt>
					<trkpt lat="48.656450" lon="-0.953280">
						<ele>212</ele>
						<time>2025-09-16T11:38:56Z</time>
					</trkpt>
					<trkpt lat="48.656390" lon="-0.953050">
						<ele>212</ele>
						<time>2025-09-16T11:39:04Z</time>
					</trkpt>
					<trkpt lat="48.656420" lon="-0.952680">
						<ele>213</ele>
						<time>2025-09-16T11:39:16Z</time>
					</trkpt>
					<trkpt lat="48.656360" lon="-0.952180">
						<ele>213</ele>
						<time>2025-09-16T11:39:33Z</time>
					</trkpt>
					<trkpt lat="48.656370" lon="-0.951690">
						<ele>214</ele>
						<time>2025-09-16T11:39:49Z</time>
					</trkpt>
					<trkpt lat="48.656670" lon="-0.951650">
						<ele>215</ele>
						<time>2025-09-16T11:40:04Z</time>
					</trkpt>
					<trkpt lat="48.656910" lon="-0.951600">
						<ele>216</ele>
						<time>2025-09-16T11:40:16Z</time>
					</trkpt>
					<trkpt lat="48.657130" lon="-0.951510">
						<ele>218</ele>
						<time>2025-09-16T11:40:28Z</time>
					</trkpt>
					<trkpt lat="48.657760" lon="-0.951210">
						<ele>221</ele>
						<time>2025-09-16T11:41:01Z</time>
					</trkpt>
					<trkpt lat="48.658340" lon="-0.950770">
						<ele>222</ele>
						<time>2025-09-16T11:41:33Z</time>
					</trkpt>
					<trkpt lat="48.658700" lon="-0.950460">
						<ele>224</ele>
						<time>2025-09-16T11:41:54Z</time>
					</trkpt>
					<trkpt lat="48.659010" lon="-0.950150">
						<ele>226</ele>
						<time>2025-09-16T11:42:13Z</time>
					</trkpt>
					<trkpt lat="48.659290" lon="-0.949780">
						<ele>229</ele>
						<time>2025-09-16T11:42:31Z</time>
					</trkpt>
					<trkpt lat="48.659650" lon="-0.949180">
						<ele>234</ele>
						<time>2025-09-16T11:42:58Z</time>
					</trkpt>
					<trkpt lat="48.660130" lon="-0.948340">
						<ele>238</ele>
						<time>2025-09-16T11:43:35Z</time>
					</trkpt>
					<trkpt lat="48.660540" lon="-0.947650">
						<ele>240</ele>
						<time>2025-09-16T11:44:05Z</time>
					</trkpt>
					<trkpt lat="48.661030" lon="-0.946850">
						<ele>241</ele>
						<time>2025-09-16T11:44:41Z</time>
					</trkpt>
					<trkpt lat="48.661480" lon="-0.946050">
						<ele>239</ele>
						<time>2025-09-16T11:45:16Z</time>
					</trkpt>
					<trkpt lat="48.661610" lon="-0.945850">
						<ele>238</ele>
						<time>2025-09-16T11:45:25Z</time>
					</trkpt>
					<trkpt lat="48.661800" lon="-0.945860">
						<ele>239</ele>
						<time>2025-09-16T11:45:35Z</time>
					</trkpt>
					<trkpt lat="48.662010" lon="-0.945720">
						<ele>239</ele>
						<time>2025-09-16T11:45:46Z</time>
					</trkpt>
					<trkpt lat="48.662410" lon="-0.945320">
						<ele>238</ele>
						<time>2025-09-16T11:46:10Z</time>
					</trkpt>
					<trkpt lat="48.663000" lon="-0.944560">
						<ele>239</ele>
						<time>2025-09-16T11:46:49Z</time>
					</trkpt>
					<trkpt lat="48.663660" lon="-0.943550">
						<ele>239</ele>
						<time>2025-09-16T11:47:36Z</time>
					</trkpt>
					<trkpt lat="48.663830" lon="-0.943190">
						<ele>238</ele>
						<time>2025-09-16T11:47:51Z</time>
					</trkpt>
					<trkpt lat="48.664110" lon="-0.942290">
						<ele>235</ele>
						<time>2025-09-16T11:48:24Z</time>
					</trkpt>
					<trkpt lat="48.664180" lon="-0.941470">
						<ele>234</ele>
						<time>2025-09-16T11:48:51Z</time>
					</trkpt>
					<trkpt lat="48.664290" lon="-0.941170">
						<ele>234</ele>
						<time>2025-09-16T11:49:02Z</time>
					</trkpt>
					<trkpt lat="48.664750" lon="-0.941410">
						<ele>238</ele>
						<time>2025-09-16T11:49:27Z</time>
					</trkpt>
					<trkpt lat="48.665220" lon="-0.941650">
						<ele>242</ele>
						<time>2025-09-16T11:49:51Z</time>
					</trkpt>
					<trkpt lat="48.665800" lon="-0.942200">
						<ele>250</ele>
						<time>2025-09-16T11:50:26Z</time>
					</trkpt>
					<trkpt lat="48.666150" lon="-0.942560">
						<ele>255</ele>
						<time>2025-09-16T11:50:47Z</time>
					</trkpt>
					<trkpt lat="48.666810" lon="-0.943240">
						<ele>263</ele>
						<time>2025-09-16T11:51:27Z</time>
					</trkpt>
					<trkpt lat="48.667560" lon="-0.944010">
						<ele>270</ele>
						<time>2025-09-16T11:52:12Z</time>
					</trkpt>
					<trkpt lat="48.668460" lon="-0.944900">
						<ele>276</ele>
						<time>2025-09-16T11:53:06Z</time>
					</trkpt>
					<trkpt lat="48.668920" lon="-0.945380">
						<ele>277</ele>
						<time>2025-09-16T11:53:34Z</time>
					</trkpt>
					<trkpt lat="48.669180" lon="-0.945540">
						<ele>278</ele>
						<time>2025-09-16T11:53:48Z</time>
					</trkpt>
					<trkpt lat="48.669450" lon="-0.945600">
						<ele>278</ele>
						<time>2025-09-16T11:54:02Z</time>
					</trkpt>
					<trkpt lat="48.669900" lon="-0.945490">
						<ele>278</ele>
						<time>2025-09-16T11:54:24Z</time>
					</trkpt>
					<trkpt lat="48.670120" lon="-0.945450">
						<ele>279</ele>
						<time>2025-09-16T11:54:36Z</time>
					</trkpt>
					<trkpt lat="48.670220" lon="-0.945110">
						<ele>279</ele>
						<time>2025-09-16T11:54:48Z</time>
					</trkpt>
					<trkpt lat="48.670580" lon="-0.943570">
						<ele>284</ele>
						<time>2025-09-16T11:55:42Z</time>
					</trkpt>
					<trkpt lat="48.671070" lon="-0.941550">
						<ele>283</ele>
						<time>2025-09-16T11:56:53Z</time>
					</trkpt>
					<trkpt lat="48.671310" lon="-0.940590">
						<ele>277</ele>
						<time>2025-09-16T11:57:27Z</time>
					</trkpt>
					<trkpt lat="48.671530" lon="-0.940040">
						<ele>275</ele>
						<time>2025-09-16T11:57:48Z</time>
					</trkpt>
					<trkpt lat="48.672240" lon="-0.939100">
						<ele>267</ele>
						<time>2025-09-16T11:58:35Z</time>
					</trkpt>
					<trkpt lat="48.672830" lon="-0.938440">
						<ele>262</ele>
						<time>2025-09-16T11:59:12Z</time>
					</trkpt>
					<trkpt lat="48.673260" lon="-0.938040">
						<ele>260</ele>
						<time>2025-09-16T11:59:37Z</time>
					</trkpt>
					<trkpt lat="48.673740" lon="-0.937810">
						<ele>259</ele>
						<time>2025-09-16T12:00:02Z</time>
					</trkpt>
					<trkpt lat="48.674030" lon="-0.937540">
						<ele>259</ele>
						<time>2025-09-16T12:00:19Z</time>
					</trkpt>
					<trkpt lat="48.674170" lon="-0.937140">
						<ele>259</ele>
						<time>2025-09-16T12:00:34Z</time>
					</trkpt>
					<trkpt lat="48.674170" lon="-0.936820">
						<ele>260</ele>
						<time>2025-09-16T12:00:45Z</time>
					</trkpt>
					<trkpt lat="48.674240" lon="-0.936010">
						<ele>265</ele>
						<time>2025-09-16T12:01:12Z</time>
					</trkpt>
					<trkpt lat="48.674380" lon="-0.935530">
						<ele>267</ele>
						<time>2025-09-16T12:01:29Z</time>
					</trkpt>
					<trkpt lat="48.674490" lon="-0.935260">
						<ele>268</ele>
						<time>2025-09-16T12:01:40Z</time>
					</trkpt>
					<trkpt lat="48.674600" lon="-0.935230">
						<ele>269</ele>
						<time>2025-09-16T12:01:45Z</time>
					</trkpt>
					<trkpt lat="48.675720" lon="-0.935900">
						<ele>273</ele>
						<time>2025-09-16T12:02:46Z</time>
					</trkpt>
					<trkpt lat="48.675830" lon="-0.935900">
						<ele>273</ele>
						<time>2025-09-16T12:02:51Z</time>
					</trkpt>
					<trkpt lat="48.675950" lon="-0.935820">
						<ele>274</ele>
						<time>2025-09-16T12:02:58Z</time>
					</trkpt>
					<trkpt lat="48.676090" lon="-0.935250">
						<ele>276</ele>
						<time>2025-09-16T12:03:18Z</time>
					</trkpt>
					<trkpt lat="48.676390" lon="-0.934150">
						<ele>280</ele>
						<time>2025-09-16T12:03:57Z</time>
					</trkpt>
					<trkpt lat="48.676740" lon="-0.932750">
						<ele>282</ele>
						<time>2025-09-16T12:04:47Z</time>
					</trkpt>
					<trkpt lat="48.677220" lon="-0.930880">
						<ele>288</ele>
						<time>2025-09-16T12:05:53Z</time>
					</trkpt>
					<trkpt lat="48.677340" lon="-0.930110">
						<ele>288</ele>
						<time>2025-09-16T12:06:19Z</time>
					</trkpt>
					<trkpt lat="48.677460" lon="-0.929050">
						<ele>286</ele>
						<time>2025-09-16T12:06:55Z</time>
					</trkpt>
					<trkpt lat="48.677480" lon="-0.928490">
						<ele>286</ele>
						<time>2025-09-16T12:07:13Z</time>
					</trkpt>
					<trkpt lat="48.677430" lon="-0.927890">
						<ele>285</ele>
						<time>2025-09-16T12:07:33Z</time>
					</trkpt>
					<trkpt lat="48.677340" lon="-0.927210">
						<ele>283</ele>
						<time>2025-09-16T12:07:56Z</time>
					</trkpt>
					<trkpt lat="48.677370" lon="-0.926850">
						<ele>281</ele>
						<time>2025-09-16T12:08:08Z</time>
					</trkpt>
					<trkpt lat="48.677490" lon="-0.926370">
						<ele>278</ele>
						<time>2025-09-16T12:08:25Z</time>
					</trkpt>
					<trkpt lat="48.677810" lon="-0.925150">
						<ele>281</ele>
						<time>2025-09-16T12:09:08Z</time>
					</trkpt>
					<trkpt lat="48.677930" lon="-0.924660">
						<ele>282</ele>
						<time>2025-09-16T12:09:26Z</time>
					</trkpt>
					<trkpt lat="48.677750" lon="-0.924410">
						<ele>285</ele>
						<time>2025-09-16T12:09:38Z</time>
					</trkpt>
					<trkpt lat="48.677160" lon="-0.923910">
						<ele>291</ele>
						<time>2025-09-16T12:10:12Z</time>
					</trkpt>
					<trkpt lat="48.676620" lon="-0.923590">
						<ele>294</ele>
						<time>2025-09-16T12:10:41Z</time>
					</trkpt>
					<trkpt lat="48.675980" lon="-0.923060">
						<ele>291</ele>
						<time>2025-09-16T12:11:17Z</time>
					</trkpt>
					<trkpt lat="48.675680" lon="-0.922900">
						<ele>289</ele>
						<time>2025-09-16T12:11:33Z</time>
					</trkpt>
					<trkpt lat="48.675380" lon="-0.922780">
						<ele>287</ele>
						<time>2025-09-16T12:11:49Z</time>
					</trkpt>
					<trkpt lat="48.674640" lon="-0.922430">
						<ele>281</ele>
						<time>2025-09-16T12:12:27Z</time>
					</trkpt>
					<trkpt lat="48.674450" lon="-0.922360">
						<ele>279</ele>
						<time>2025-09-16T12:12:37Z</time>
					</trkpt>
					<trkpt lat="48.674300" lon="-0.922440">
						<ele>278</ele>
						<time>2025-09-16T12:12:45Z</time>
					</trkpt>
					<trkpt lat="48.674120" lon="-0.922820">
						<ele>278</ele>
						<time>2025-09-16T12:13:01Z</time>
					</trkpt>
					<trkpt lat="48.673440" lon="-0.923810">
						<ele>275</ele>
						<time>2025-09-16T12:13:48Z</time>
					</trkpt>
					<trkpt lat="48.673010" lon="-0.924280">
						<ele>272</ele>
						<time>2025-09-16T12:14:14Z</time>
					</trkpt>
					<trkpt lat="48.672740" lon="-0.924610">
						<ele>270</ele>
						<time>2025-09-16T12:14:32Z</time>
					</trkpt>
					<trkpt lat="48.672470" lon="-0.924990">
						<ele>267</ele>
						<time>2025-09-16T12:14:50Z</time>
					</trkpt>
					<trkpt lat="48.672070" lon="-0.925700">
						<ele>265</ele>
						<time>2025-09-16T12:15:21Z</time>
					</trkpt>
					<trkpt lat="48.671680" lon="-0.926370">
						<ele>261</ele>
						<time>2025-09-16T12:15:51Z</time>
					</trkpt>
					<trkpt lat="48.671050" lon="-0.927360">
						<ele>258</ele>
						<time>2025-09-16T12:16:36Z</time>
					</trkpt>
					<trkpt lat="48.670740" lon="-0.927840">
						<ele>258</ele>
						<time>2025-09-16T12:16:58Z</time>
					</trkpt>
					<trkpt lat="48.670290" lon="-0.927720">
						<ele>256</ele>
						<time>2025-09-16T12:17:21Z</time>
					</trkpt>
					<trkpt lat="48.670120" lon="-0.927890">
						<ele>255</ele>
						<time>2025-09-16T12:17:31Z</time>
					</trkpt>
					<trkpt lat="48.669480" lon="-0.928460">
						<ele>251</ele>
						<time>2025-09-16T12:18:08Z</time>
					</trkpt>
					<trkpt lat="48.668250" lon="-0.929630">
						<ele>243</ele>
						<time>2025-09-16T12:19:21Z</time>
					</trkpt>
					<trkpt lat="48.668100" lon="-0.929490">
						<ele>242</ele>
						<time>2025-09-16T12:19:30Z</time>
					</trkpt>
					<trkpt lat="48.667840" lon="-0.929320">
						<ele>240</ele>
						<time>2025-09-16T12:19:44Z</time>
					</trkpt>
					<trkpt lat="48.667510" lon="-0.929700">
						<ele>238</ele>
						<time>2025-09-16T12:20:05Z</time>
					</trkpt>
					<trkpt lat="48.667340" lon="-0.930380">
						<ele>238</ele>
						<time>2025-09-16T12:20:29Z</time>
					</trkpt>
					<trkpt lat="48.667080" lon="-0.930750">
						<ele>237</ele>
						<time>2025-09-16T12:20:47Z</time>
					</trkpt>
					<trkpt lat="48.666880" lon="-0.931100">
						<ele>236</ele>
						<time>2025-09-16T12:21:02Z</time>
					</trkpt>
					<trkpt lat="48.666600" lon="-0.931690">
						<ele>234</ele>
						<time>2025-09-16T12:21:26Z</time>
					</trkpt>
					<trkpt lat="48.666090" lon="-0.931920">
						<ele>233</ele>
						<time>2025-09-16T12:21:53Z</time>
					</trkpt>
					<trkpt lat="48.665660" lon="-0.932030">
						<ele>232</ele>
						<time>2025-09-16T12:22:14Z</time>
					</trkpt>
					<trkpt lat="48.665330" lon="-0.932190">
						<ele>233</ele>
						<time>2025-09-16T12:22:32Z</time>
					</trkpt>
					<trkpt lat="48.664510" lon="-0.932960">
						<ele>235</ele>
						<time>2025-09-16T12:23:20Z</time>
					</trkpt>
					<trkpt lat="48.663620" lon="-0.933830">
						<ele>241</ele>
						<time>2025-09-16T12:24:13Z</time>
					</trkpt>
					<trkpt lat="48.663050" lon="-0.934550">
						<ele>244</ele>
						<time>2025-09-16T12:24:50Z</time>
					</trkpt>
					<trkpt lat="48.662600" lon="-0.934990">
						<ele>247</ele>
						<time>2025-09-16T12:25:17Z</time>
					</trkpt>
					<trkpt lat="48.662340" lon="-0.935290">
						<ele>249</ele>
						<time>2025-09-16T12:25:33Z</time>
					</trkpt>
					<trkpt lat="48.661620" lon="-0.935920">
						<ele>257</ele>
						<time>2025-09-16T12:26:15Z</time>
					</trkpt>
					<trkpt lat="48.660940" lon="-0.936570">
						<ele>261</ele>
						<time>2025-09-16T12:26:55Z</time>
					</trkpt>
					<trkpt lat="48.660460" lon="-0.936980">
						<ele>266</ele>
						<time>2025-09-16T12:27:23Z</time>
					</trkpt>
					<trkpt lat="48.660190" lon="-0.937020">
						<ele>269</ele>
						<time>2025-09-16T12:27:36Z</time>
					</trkpt>
					<trkpt lat="48.659860" lon="-0.936910">
						<ele>272</ele>
						<time>2025-09-16T12:27:53Z</time>
					</trkpt>
					<trkpt lat="48.659340" lon="-0.936680">
						<ele>277</ele>
						<time>2025-09-16T12:28:20Z</time>
					</trkpt>
					<trkpt lat="48.658690" lon="-0.936460">
						<ele>280</ele>
						<time>2025-09-16T12:28:54Z</time>
					</trkpt>
					<trkpt lat="48.657960" lon="-0.936190">
						<ele>284</ele>
						<time>2025-09-16T12:29:31Z</time>
					</trkpt>
					<trkpt lat="48.657380" lon="-0.936030">
						<ele>287</ele>
						<time>2025-09-16T12:30:01Z</time>
					</trkpt>
					<trkpt lat="48.657320" lon="-0.936120">
						<ele>286</ele>
						<time>2025-09-16T12:30:05Z</time>
					</trkpt>
					<trkpt lat="48.656800" lon="-0.936470">
						<ele>284</ele>
						<time>2025-09-16T12:30:34Z</time>
					</trkpt>
					<trkpt lat="48.656260" lon="-0.936690">
						<ele>279</ele>
						<time>2025-09-16T12:31:02Z</time>
					</trkpt>
					<trkpt lat="48.655170" lon="-0.937160">
						<ele>273</ele>
						<time>2025-09-16T12:31:58Z</time>
					</trkpt>
					<trkpt lat="48.654720" lon="-0.937370">
						<ele>270</ele>
						<time>2025-09-16T12:32:22Z</time>
					</trkpt>
					<trkpt lat="48.654150" lon="-0.937590">
						<ele>267</ele>
						<time>2025-09-16T12:32:51Z</time>
					</trkpt>
					<trkpt lat="48.653380" lon="-0.937940">
						<ele>263</ele>
						<time>2025-09-16T12:33:32Z</time>
					</trkpt>
					<trkpt lat="48.652120" lon="-0.938480">
						<ele>257</ele>
						<time>2025-09-16T12:34:37Z</time>
					</trkpt>
					<trkpt lat="48.651830" lon="-0.938600">
						<ele>255</ele>
						<time>2025-09-16T12:34:52Z</time>
					</trkpt>
					<trkpt lat="48.651470" lon="-0.938690">
						<ele>254</ele>
						<time>2025-09-16T12:35:10Z</time>
					</trkpt>
					<trkpt lat="48.650440" lon="-0.938740">
						<ele>253</ele>
						<time>2025-09-16T12:36:02Z</time>
					</trkpt>
					<trkpt lat="48.650480" lon="-0.939060">
						<ele>248</ele>
						<time>2025-09-16T12:36:13Z</time>
					</trkpt>
					<trkpt lat="48.650470" lon="-0.939260">
						<ele>245</ele>
						<time>2025-09-16T12:36:19Z</time>
					</trkpt>
					<trkpt lat="48.650600" lon="-0.939530">
						<ele>242</ele>
						<time>2025-09-16T12:36:30Z</time>
					</trkpt>
					<trkpt lat="48.650770" lon="-0.939740">
						<ele>238</ele>
						<time>2025-09-16T12:36:41Z</time>
					</trkpt>
					<trkpt lat="48.650990" lon="-0.939940">
						<ele>235</ele>
						<time>2025-09-16T12:36:54Z</time>
					</trkpt>
					<trkpt lat="48.650840" lon="-0.940040">
						<ele>234</ele>
						<time>2025-09-16T12:37:02Z</time>
					</trkpt>
					<trkpt lat="48.650990" lon="-0.940450">
						<ele>228</ele>
						<time>2025-09-16T12:37:18Z</time>
					</trkpt>
					<trkpt lat="48.650910" lon="-0.940530">
						<ele>227</ele>
						<time>2025-09-16T12:37:23Z</time>
					</trkpt>
					<trkpt lat="48.650430" lon="-0.940890">
						<ele>224</ele>
						<time>2025-09-16T12:37:49Z</time>
					</trkpt>
					<trkpt lat="48.650250" lon="-0.941100">
						<ele>221</ele>
						<time>2025-09-16T12:38:01Z</time>
					</trkpt>
					<trkpt lat="48.649830" lon="-0.941450">
						<ele>219</ele>
						<time>2025-09-16T12:38:25Z</time>
					</trkpt>
					<trkpt lat="48.649910" lon="-0.941640">
						<ele>216</ele>
						<time>2025-09-16T12:38:32Z</time>
					</trkpt>
					<trkpt lat="48.650020" lon="-0.941910">
						<ele>213</ele>
						<time>2025-09-16T12:38:43Z</time>
					</trkpt>
					<trkpt lat="48.650320" lon="-0.942010">
						<ele>210</ele>
						<time>2025-09-16T12:38:58Z</time>
					</trkpt>
					<trkpt lat="48.650350" lon="-0.942200">
						<ele>207</ele>
						<time>2025-09-16T12:39:05Z</time>
					</trkpt>
					<trkpt lat="48.650430" lon="-0.942610">
						<ele>201</ele>
						<time>2025-09-16T12:39:19Z</time>
					</trkpt>
					<trkpt lat="48.650180" lon="-0.942670">
						<ele>203</ele>
						<time>2025-09-16T12:39:31Z</time>
					</trkpt>
					<trkpt lat="48.649890" lon="-0.942990">
						<ele>201</ele>
						<time>2025-09-16T12:39:49Z</time>
					</trkpt>
					<trkpt lat="48.649560" lon="-0.943340">
						<ele>200</ele>
						<time>2025-09-16T12:40:10Z</time>
					</trkpt>
					<trkpt lat="48.649210" lon="-0.943690">
						<ele>200</ele>
						<time>2025-09-16T12:40:31Z</time>
					</trkpt>
					<trkpt lat="48.648930" lon="-0.943710">
						<ele>203</ele>
						<time>2025-09-16T12:40:45Z</time>
					</trkpt>
					<trkpt lat="48.648650" lon="-0.943820">
						<ele>205</ele>
						<time>2025-09-16T12:40:59Z</time>
					</trkpt>
					<trkpt lat="48.648250" lon="-0.943620">
						<ele>211</ele>
						<time>2025-09-16T12:41:20Z</time>
					</trkpt>
					<trkpt lat="48.648120" lon="-0.943690">
						<ele>210</ele>
						<time>2025-09-16T12:41:27Z</time>
					</trkpt>
					<trkpt lat="48.648150" lon="-0.943800">
						<ele>209</ele>
						<time>2025-09-16T12:41:31Z</time>
					</trkpt>
					<trkpt lat="48.648240" lon="-0.944060">
						<ele>207</ele>
						<time>2025-09-16T12:41:41Z</time>
					</trkpt>
					<trkpt lat="48.648350" lon="-0.944580">
						<ele>204</ele>
						<time>2025-09-16T12:41:59Z</time>
					</trkpt>
					<trkpt lat="48.648340" lon="-0.944790">
						<ele>203</ele>
						<time>2025-09-16T12:42:06Z</time>
					</trkpt>
					</trkseg>
				</trk>
			</gpx>